sensor_id;sensor_type;location;lat;lon;timestamp;pressure;altitude;pressure_sealevel;temperature;humidity
39789;BME280;25478;42.626;23.320;2022-09-24T00:00:58;93428.34;;;5.81;73.56
39789;BME280;25478;42.626;23.320;2022-09-24T00:03:24;93428.22;;;5.78;73.55
39789;BME280;25478;42.626;23.320;2022-09-24T00:05:53;93436.41;;;5.76;73.94
39789;BME280;25478;42.626;23.320;2022-09-24T00:08:19;93409.06;;;5.58;74.60
39789;BME280;25478;42.626;23.320;2022-09-24T00:10:46;93435.56;;;5.72;73.95
39789;BME280;25478;42.626;23.320;2022-09-24T00:13:15;93426.53;;;5.70;74.15
39789;BME280;25478;42.626;23.320;2022-09-24T00:15:45;93433.19;;;5.67;74.53
39789;BME280;25478;42.626;23.320;2022-09-24T00:18:12;93434.28;;;5.66;74.61
39789;BME280;25478;42.626;23.320;2022-09-24T00:20:38;93404.56;;;5.43;74.91
39789;BME280;25478;42.626;23.320;2022-09-24T00:23:05;93428.88;;;5.59;74.99
39789;BME280;25478;42.626;23.320;2022-09-24T00:25:31;93423.22;;;5.57;75.13
39789;BME280;25478;42.626;23.320;2022-09-24T00:28:16;93408.94;;;5.39;75.06
39789;BME280;25478;42.626;23.320;2022-09-24T00:30:43;93427.50;;;5.49;75.01
39789;BME280;25478;42.626;23.320;2022-09-24T00:33:10;93423.72;;;5.47;75.47
39789;BME280;25478;42.626;23.320;2022-09-24T00:35:37;93425.88;;;5.45;75.93
39789;BME280;25478;42.626;23.320;2022-09-24T00:38:03;93414.06;;;5.35;76.31
39789;BME280;25478;42.626;23.320;2022-09-24T00:40:32;93406.91;;;5.32;76.15
39789;BME280;25478;42.626;23.320;2022-09-24T00:42:58;93425.25;;;5.35;76.10
39789;BME280;25478;42.626;23.320;2022-09-24T00:45:26;93423.53;;;5.27;76.45
39789;BME280;25478;42.626;23.320;2022-09-24T00:47:53;93426.81;;;5.24;76.50
39789;BME280;25478;42.626;23.320;2022-09-24T00:50:23;93401.22;;;5.02;77.06
39789;BME280;25478;42.626;23.320;2022-09-24T00:52:54;93428.06;;;5.15;77.45
39789;BME280;25478;42.626;23.320;2022-09-24T00:55:22;93408.53;;;4.96;77.20
39789;BME280;25478;42.626;23.320;2022-09-24T00:57:51;93424.47;;;5.07;77.59
39789;BME280;25478;42.626;23.320;2022-09-24T01:00:18;93422.97;;;5.06;77.97
39789;BME280;25478;42.626;23.320;2022-09-24T01:02:45;93390.16;;;4.93;78.35
39789;BME280;25478;42.626;23.320;2022-09-24T01:05:11;93410.56;;;5.03;78.39
39789;BME280;25478;42.626;23.320;2022-09-24T01:07:37;93407.19;;;5.02;78.50
39789;BME280;25478;42.626;23.320;2022-09-24T01:10:03;93373.44;;;4.82;78.99
39789;BME280;25478;42.626;23.320;2022-09-24T01:15:17;93400.38;;;4.98;79.37
39789;BME280;25478;42.626;23.320;2022-09-24T01:17:58;93403.63;;;4.95;79.48
39789;BME280;25478;42.626;23.320;2022-09-24T01:32:01;93322.78;;;4.18;80.37
39789;BME280;25478;42.626;23.320;2022-09-24T01:34:36;93411.81;;;4.69;80.60
39789;BME280;25478;42.626;23.320;2022-09-24T01:37:04;93409.88;;;4.66;80.90
39789;BME280;25478;42.626;23.320;2022-09-24T01:39:31;93407.25;;;4.66;81.01
39789;BME280;25478;42.626;23.320;2022-09-24T01:41:57;93403.91;;;4.65;81.49
39789;BME280;25478;42.626;23.320;2022-09-24T01:44:23;93359.16;;;4.39;81.63
39789;BME280;25478;42.626;23.320;2022-09-24T01:46:50;93406.38;;;4.62;81.77
39789;BME280;25478;42.626;23.320;2022-09-24T01:49:16;93386.84;;;4.43;81.64
39789;BME280;25478;42.626;23.320;2022-09-24T01:51:52;93419.31;;;4.58;81.63
39789;BME280;25478;42.626;23.320;2022-09-24T01:54:25;93412.16;;;4.55;81.61
39789;BME280;25478;42.626;23.320;2022-09-24T01:56:57;93413.69;;;4.56;81.91
39789;BME280;25478;42.626;23.320;2022-09-24T01:59:39;93413.69;;;4.56;81.74
39789;BME280;25478;42.626;23.320;2022-09-24T02:02:07;93410.66;;;4.54;82.14
39789;BME280;25478;42.626;23.320;2022-09-24T02:04:38;93418.78;;;4.52;82.27
39789;BME280;25478;42.626;23.320;2022-09-24T02:07:11;93417.25;;;4.51;82.09
39789;BME280;25478;42.626;23.320;2022-09-24T02:09:40;93418.25;;;4.47;82.06
39789;BME280;25478;42.626;23.320;2022-09-24T02:12:20;93419.66;;;4.44;82.50
39789;BME280;25478;42.626;23.320;2022-09-24T02:14:58;93428.88;;;4.42;82.58
39789;BME280;25478;42.626;23.320;2022-09-24T02:17:29;93420.41;;;4.33;82.51
39789;BME280;25478;42.626;23.320;2022-09-24T02:19:58;93436.47;;;4.35;83.09
39789;BME280;25478;42.626;23.320;2022-09-24T02:22:26;93435.41;;;4.36;82.74
39789;BME280;25478;42.626;23.320;2022-09-24T02:24:56;93433.13;;;4.34;83.23
39789;BME280;25478;42.626;23.320;2022-09-24T02:27:26;93432.13;;;4.27;83.09
39789;BME280;25478;42.626;23.320;2022-09-24T02:29:55;93442.34;;;4.32;83.42
39789;BME280;25478;42.626;23.320;2022-09-24T02:32:22;93423.09;;;4.12;83.73
39789;BME280;25478;42.626;23.320;2022-09-24T02:34:53;93453.13;;;4.30;83.54
39789;BME280;25478;42.626;23.320;2022-09-24T02:37:22;93436.25;;;4.15;83.53
39789;BME280;25478;42.626;23.320;2022-09-24T02:39:48;93459.72;;;4.28;83.75
39789;BME280;25478;42.626;23.320;2022-09-24T02:42:15;93455.25;;;4.28;84.18
39789;BME280;25478;42.626;23.320;2022-09-24T02:44:42;93463.41;;;4.27;83.95
39789;BME280;25478;42.626;23.320;2022-09-24T02:47:08;93458.94;;;4.27;83.90
39789;BME280;25478;42.626;23.320;2022-09-24T02:49:34;93461.56;;;4.27;84.34
39789;BME280;25478;42.626;23.320;2022-09-24T02:52:00;93462.66;;;4.26;84.00
39789;BME280;25478;42.626;23.320;2022-09-24T02:54:26;93457.44;;;4.26;83.96
39789;BME280;25478;42.626;23.320;2022-09-24T02:56:52;93462.66;;;4.26;84.43
39789;BME280;25478;42.626;23.320;2022-09-24T02:59:18;93461.13;;;4.25;84.31
39789;BME280;25478;42.626;23.320;2022-09-24T03:01:44;93463.31;;;4.23;84.44
39789;BME280;25478;42.626;23.320;2022-09-24T03:04:11;93460.03;;;4.14;84.02
39789;BME280;25478;42.626;23.320;2022-09-24T03:06:37;93462.75;;;4.17;84.42
39789;BME280;25478;42.626;23.320;2022-09-24T03:09:03;93455.59;;;4.14;84.88
39789;BME280;25478;42.626;23.320;2022-09-24T03:11:29;93458.19;;;4.14;84.88
39789;BME280;25478;42.626;23.320;2022-09-24T03:13:56;93426.34;;;3.97;84.71
39789;BME280;25478;42.626;23.320;2022-09-24T03:16:22;93452.53;;;4.12;85.29
39789;BME280;25478;42.626;23.320;2022-09-24T03:18:47;93462.19;;;4.12;85.19
39789;BME280;25478;42.626;23.320;2022-09-24T03:21:16;93452.53;;;4.12;84.79
39789;BME280;25478;42.626;23.320;2022-09-24T03:23:41;93464.34;;;4.10;84.63
39789;BME280;25478;42.626;23.320;2022-09-24T03:26:07;93452.75;;;4.07;85.15
39789;BME280;25478;42.626;23.320;2022-09-24T03:28:33;93465.78;;;4.07;84.76
39789;BME280;25478;42.626;23.320;2022-09-24T03:30:59;93465.97;;;4.02;84.64
39789;BME280;25478;42.626;23.320;2022-09-24T03:33:37;93464.44;;;4.01;84.71
39789;BME280;25478;42.626;23.320;2022-09-24T03:36:05;93464.34;;;3.98;84.69
39789;BME280;25478;42.626;23.320;2022-09-24T03:38:32;93466.81;;;3.94;84.81
39789;BME280;25478;42.626;23.320;2022-09-24T03:40:58;93483.19;;;3.94;84.65
39789;BME280;25478;42.626;23.320;2022-09-24T03:43:25;93480.06;;;3.89;84.71
39789;BME280;25478;42.626;23.320;2022-09-24T03:45:51;93477.78;;;3.87;84.87
39789;BME280;25478;42.626;23.320;2022-09-24T03:48:18;93482.53;;;3.85;85.05
39789;BME280;25478;42.626;23.320;2022-09-24T03:50:45;93476.56;;;3.85;85.06
39789;BME280;25478;42.626;23.320;2022-09-24T03:53:12;93477.31;;;3.85;85.20
39789;BME280;25478;42.626;23.320;2022-09-24T03:55:45;93479.16;;;3.85;85.38
39789;BME280;25478;42.626;23.320;2022-09-24T03:58:13;93483.94;;;3.83;85.49
39789;BME280;25478;42.626;23.320;2022-09-24T04:00:39;93469.59;;;3.77;85.74
39789;BME280;25478;42.626;23.320;2022-09-24T04:03:04;93484.59;;;3.80;85.56
39789;BME280;25478;42.626;23.320;2022-09-24T04:05:31;93448.47;;;3.57;86.02
39789;BME280;25478;42.626;23.320;2022-09-24T04:07:58;93482.94;;;3.75;85.60
39789;BME280;25478;42.626;23.320;2022-09-24T04:10:23;93480.31;;;3.75;86.21
39789;BME280;25478;42.626;23.320;2022-09-24T04:12:50;93478.81;;;3.74;86.07
39789;BME280;25478;42.626;23.320;2022-09-24T04:15:16;93486.94;;;3.73;86.14
39789;BME280;25478;42.626;23.320;2022-09-24T04:17:52;93479.91;;;3.73;86.36
39789;BME280;25478;42.626;23.320;2022-09-24T04:20:20;93484.66;;;3.71;86.39
39789;BME280;25478;42.626;23.320;2022-09-24T04:22:51;93485.88;;;3.74;86.33
39789;BME280;25478;42.626;23.320;2022-09-24T04:25:17;93477.38;;;3.64;86.55
39789;BME280;25478;42.626;23.320;2022-09-24T04:27:43;93490.16;;;3.70;85.99
39789;BME280;25478;42.626;23.320;2022-09-24T04:30:11;93489.41;;;3.69;86.35
39789;BME280;25478;42.626;23.320;2022-09-24T04:32:37;93499.53;;;3.71;86.39
39789;BME280;25478;42.626;23.320;2022-09-24T04:35:03;93482.75;;;3.59;86.77
39789;BME280;25478;42.626;23.320;2022-09-24T04:37:29;93508.53;;;3.73;86.73
39789;BME280;25478;42.626;23.320;2022-09-24T04:39:54;93506.69;;;3.74;86.71
39789;BME280;25478;42.626;23.320;2022-09-24T04:42:20;93504.53;;;3.76;86.73
39789;BME280;25478;42.626;23.320;2022-09-24T04:44:45;93501.31;;;3.79;86.93
39789;BME280;25478;42.626;23.320;2022-09-24T04:47:13;93505.22;;;3.85;87.10
39789;BME280;25478;42.626;23.320;2022-09-24T04:49:39;93481.22;;;3.79;86.93
39789;BME280;25478;42.626;23.320;2022-09-24T04:52:05;93501.25;;;4.00;87.28
39789;BME280;25478;42.626;23.320;2022-09-24T04:54:30;93493.88;;;4.02;87.21
39789;BME280;25478;42.626;23.320;2022-09-24T04:56:56;93496.94;;;4.16;87.56
39789;BME280;25478;42.626;23.320;2022-09-24T04:59:22;93492.06;;;4.27;87.29
39789;BME280;25478;42.626;23.320;2022-09-24T05:01:47;93488.59;;;4.35;87.12
39789;BME280;25478;42.626;23.320;2022-09-24T05:04:13;93500.91;;;4.46;87.19
39789;BME280;25478;42.626;23.320;2022-09-24T05:06:39;93475.72;;;4.38;87.35
39789;BME280;25478;42.626;23.320;2022-09-24T05:09:04;93507.13;;;4.66;87.50
39789;BME280;25478;42.626;23.320;2022-09-24T05:11:30;93503.31;;;4.76;87.31
39789;BME280;25478;42.626;23.320;2022-09-24T05:13:55;93517.66;;;4.94;86.93
39789;BME280;25478;42.626;23.320;2022-09-24T05:16:21;93511.34;;;5.07;86.48
39789;BME280;25478;42.626;23.320;2022-09-24T05:18:46;93493.50;;;5.09;86.66
39789;BME280;25478;42.626;23.320;2022-09-24T05:21:12;93517.59;;;5.43;86.37
39789;BME280;25478;42.626;23.320;2022-09-24T05:23:37;93510.78;;;5.67;85.43
39789;BME280;25478;42.626;23.320;2022-09-24T05:26:03;93514.88;;;5.92;85.15
39789;BME280;25478;42.626;23.320;2022-09-24T05:28:46;93512.97;;;6.20;84.53
39789;BME280;25478;42.626;23.320;2022-09-24T05:31:12;93506.28;;;6.51;83.35
39789;BME280;25478;42.626;23.320;2022-09-24T05:33:38;93502.22;;;6.85;82.38
39789;BME280;25478;42.626;23.320;2022-09-24T05:36:03;93507.06;;;7.18;81.06
39789;BME280;25478;42.626;23.320;2022-09-24T05:38:29;93505.94;;;7.54;79.70
39789;BME280;25478;42.626;23.320;2022-09-24T05:40:54;93508.44;;;7.86;79.16
39789;BME280;25478;42.626;23.320;2022-09-24T05:43:20;93509.41;;;8.16;77.33
39789;BME280;25478;42.626;23.320;2022-09-24T05:45:46;93495.66;;;8.23;76.41
39789;BME280;25478;42.626;23.320;2022-09-24T05:48:14;93523.94;;;8.53;75.06
39789;BME280;25478;42.626;23.320;2022-09-24T05:50:40;93527.06;;;8.62;74.81
39789;BME280;25478;42.626;23.320;2022-09-24T05:53:06;93534.94;;;8.62;73.71
39789;BME280;25478;42.626;23.320;2022-09-24T05:55:32;93530.06;;;8.60;73.58
39789;BME280;25478;42.626;23.320;2022-09-24T05:58:04;93537.94;;;8.60;73.98
39789;BME280;25478;42.626;23.320;2022-09-24T06:00:31;93533.59;;;8.71;73.43
39789;BME280;25478;42.626;23.320;2022-09-24T06:03:05;93532.53;;;8.99;73.09
39789;BME280;25478;42.626;23.320;2022-09-24T06:05:32;93532.84;;;9.17;71.51
39789;BME280;25478;42.626;23.320;2022-09-24T06:08:01;93529.59;;;9.27;70.82
39789;BME280;25478;42.626;23.320;2022-09-24T06:10:27;93532.72;;;9.36;70.08
39789;BME280;25478;42.626;23.320;2022-09-24T06:12:52;93538.66;;;9.33;69.00
39789;BME280;25478;42.626;23.320;2022-09-24T06:15:19;93527.66;;;9.24;69.28
39789;BME280;25478;42.626;23.320;2022-09-24T06:17:45;93543.88;;;9.29;69.74
39789;BME280;25478;42.626;23.320;2022-09-24T06:20:11;93542.97;;;9.45;69.33
39789;BME280;25478;42.626;23.320;2022-09-24T06:22:38;93539.72;;;9.55;68.34
39789;BME280;25478;42.626;23.320;2022-09-24T06:25:05;93546.59;;;9.63;68.34
39789;BME280;25478;42.626;23.320;2022-09-24T06:27:30;93529.06;;;9.71;67.48
39789;BME280;25478;42.626;23.320;2022-09-24T06:29:56;93552.53;;;9.86;66.86
39789;BME280;25478;42.626;23.320;2022-09-24T06:32:23;93543.06;;;9.78;66.58
39789;BME280;25478;42.626;23.320;2022-09-24T06:34:48;93533.91;;;9.69;66.97
39789;BME280;25478;42.626;23.320;2022-09-24T06:37:14;93562.31;;;9.86;66.63
39789;BME280;25478;42.626;23.320;2022-09-24T06:39:39;93558.19;;;9.88;66.59
39789;BME280;25478;42.626;23.320;2022-09-24T06:42:05;93554.94;;;9.99;66.42
39789;BME280;25478;42.626;23.320;2022-09-24T06:44:33;93558.09;;;10.11;65.65
39789;BME280;25478;42.626;23.320;2022-09-24T06:46:59;93543.91;;;10.20;65.47
39789;BME280;25478;42.626;23.320;2022-09-24T06:49:26;93562.34;;;10.53;64.21
39789;BME280;25478;42.626;23.320;2022-09-24T06:51:55;93549.72;;;10.69;63.16
39789;BME280;25478;42.626;23.320;2022-09-24T06:54:21;93560.28;;;10.73;62.39
39789;BME280;25478;42.626;23.320;2022-09-24T06:56:47;93558.84;;;10.79;62.66
39789;BME280;25478;42.626;23.320;2022-09-24T06:59:13;93539.97;;;10.74;61.85
39789;BME280;25478;42.626;23.320;2022-09-24T07:01:38;93558.63;;;10.98;61.90
39789;BME280;25478;42.626;23.320;2022-09-24T07:04:04;93559.09;;;11.11;61.42
39789;BME280;25478;42.626;23.320;2022-09-24T07:06:29;93558.28;;;11.04;60.60
39789;BME280;25478;42.626;23.320;2022-09-24T07:09:15;93564.88;;;10.83;61.25
39789;BME280;25478;42.626;23.320;2022-09-24T07:11:41;93546.75;;;10.75;60.74
39789;BME280;25478;42.626;23.320;2022-09-24T07:14:08;93561.78;;;10.74;61.03
39789;BME280;25478;42.626;23.320;2022-09-24T07:16:33;93566.72;;;10.79;60.51
39789;BME280;25478;42.626;23.320;2022-09-24T07:18:58;93561.06;;;10.77;60.48
39789;BME280;25478;42.626;23.320;2022-09-24T07:21:24;93551.63;;;10.76;60.98
39789;BME280;25478;42.626;23.320;2022-09-24T07:23:49;93560.81;;;10.93;60.73
39789;BME280;25478;42.626;23.320;2022-09-24T07:26:15;93554.50;;;11.01;60.06
39789;BME280;25478;42.626;23.320;2022-09-24T07:28:40;93557.16;;;11.05;60.27
39789;BME280;25478;42.626;23.320;2022-09-24T07:31:06;93560.25;;;11.17;60.06
39789;BME280;25478;42.626;23.320;2022-09-24T07:33:32;93560.69;;;11.23;59.13
39789;BME280;25478;42.626;23.320;2022-09-24T07:35:58;93550.53;;;11.25;59.08
39789;BME280;25478;42.626;23.320;2022-09-24T07:38:24;93558.13;;;11.30;59.13
39789;BME280;25478;42.626;23.320;2022-09-24T07:40:49;93554.03;;;11.40;59.20
39789;BME280;25478;42.626;23.320;2022-09-24T07:43:15;93558.22;;;11.48;59.30
39789;BME280;25478;42.626;23.320;2022-09-24T07:45:41;93542.09;;;11.60;58.59
39789;BME280;25478;42.626;23.320;2022-09-24T07:48:09;93547.03;;;11.65;58.04
39789;BME280;25478;42.626;23.320;2022-09-24T07:50:38;93543.25;;;11.63;58.25
39789;BME280;25478;42.626;23.320;2022-09-24T07:53:04;93552.78;;;11.78;58.44
39789;BME280;25478;42.626;23.320;2022-09-24T07:55:30;93552.81;;;11.85;58.24
39789;BME280;25478;42.626;23.320;2022-09-24T07:57:56;93549.03;;;11.82;58.02
39789;BME280;25478;42.626;23.320;2022-09-24T08:00:23;93551.72;;;11.90;58.21
39789;BME280;25478;42.626;23.320;2022-09-24T08:02:49;93552.84;;;11.92;57.70
39789;BME280;25478;42.626;23.320;2022-09-24T08:05:16;93543.03;;;11.86;57.35
39789;BME280;25478;42.626;23.320;2022-09-24T08:07:50;93546.03;;;11.80;57.63
39789;BME280;25478;42.626;23.320;2022-09-24T08:10:15;93552.81;;;11.85;57.86
39789;BME280;25478;42.626;23.320;2022-09-24T08:12:41;93548.00;;;11.98;57.44
39789;BME280;25478;42.626;23.320;2022-09-24T08:15:06;93537.41;;;11.91;57.55
39789;BME280;25478;42.626;23.320;2022-09-24T08:17:32;93535.59;;;12.05;57.23
39789;BME280;25478;42.626;23.320;2022-09-24T08:19:58;93555.28;;;12.33;56.47
39789;BME280;25478;42.626;23.320;2022-09-24T08:22:23;93552.28;;;12.42;56.07
39789;BME280;25478;42.626;23.320;2022-09-24T08:24:51;93551.94;;;12.50;55.98
39789;BME280;25478;42.626;23.320;2022-09-24T08:27:17;93546.28;;;12.59;55.19
39789;BME280;25478;42.626;23.320;2022-09-24T08:29:45;93549.66;;;12.49;55.17
39789;BME280;25478;42.626;23.320;2022-09-24T08:32:10;93550.81;;;12.48;55.21
39789;BME280;25478;42.626;23.320;2022-09-24T08:34:38;93541.78;;;12.56;54.97
39789;BME280;25478;42.626;23.320;2022-09-24T08:37:06;93544.44;;;12.63;54.45
39789;BME280;25478;42.626;23.320;2022-09-24T08:39:32;93547.44;;;12.68;53.88
39789;BME280;25478;42.626;23.320;2022-09-24T08:42:10;93546.34;;;12.80;53.20
39789;BME280;25478;42.626;23.320;2022-09-24T08:44:40;93556.53;;;12.82;53.53
39789;BME280;25478;42.626;23.320;2022-09-24T08:50:14;93546.72;;;12.82;54.48
39789;BME280;25478;42.626;23.320;2022-09-24T08:55:17;93541.81;;;12.84;52.45
39789;BME280;25478;42.626;23.320;2022-09-24T08:57:56;93537.66;;;12.83;52.35
39789;BME280;25478;42.626;23.320;2022-09-24T09:00:24;93540.28;;;12.83;52.28
39789;BME280;25478;42.626;23.320;2022-09-24T09:03:11;93533.91;;;12.88;52.06
39789;BME280;25478;42.626;23.320;2022-09-24T09:06:33;93534.25;;;12.93;52.05
39789;BME280;25478;42.626;23.320;2022-09-24T09:08:52;93531.66;;;13.04;51.61
39789;BME280;25478;42.626;23.320;2022-09-24T09:11:23;93528.97;;;13.18;50.94
39789;BME280;25478;42.626;23.320;2022-09-24T09:14:21;93537.31;;;13.35;50.26
39789;BME280;25478;42.626;23.320;2022-09-24T09:19:17;93512.38;;;13.46;48.63
39789;BME280;25478;42.626;23.320;2022-09-24T09:22:12;93527.44;;;13.71;48.66
39789;BME280;25478;42.626;23.320;2022-09-24T09:24:42;93529.28;;;13.77;47.80
39789;BME280;25478;42.626;23.320;2022-09-24T09:27:11;93524.75;;;13.78;48.20
39789;BME280;25478;42.626;23.320;2022-09-24T09:29:40;93521.31;;;13.92;47.49
39789;BME280;25478;42.626;23.320;2022-09-24T09:38:10;93518.22;;;14.11;45.72
39789;BME280;25478;42.626;23.320;2022-09-24T09:43:48;93510.25;;;14.18;46.50
39789;BME280;25478;42.626;23.320;2022-09-24T09:46:32;93507.19;;;14.27;47.61
39789;BME280;25478;42.626;23.320;2022-09-24T09:49:05;93500.72;;;14.39;47.79
39789;BME280;25478;42.626;23.320;2022-09-24T09:51:38;93501.78;;;14.52;46.74
39789;BME280;25478;42.626;23.320;2022-09-24T09:54:04;93506.31;;;14.55;46.29
39789;BME280;25478;42.626;23.320;2022-09-24T09:56:33;93501.00;;;14.58;45.82
39789;BME280;25478;42.626;23.320;2022-09-24T09:59:06;93497.94;;;14.63;45.40
39789;BME280;25478;42.626;23.320;2022-09-24T10:01:34;93482.00;;;14.67;45.12
39789;BME280;25478;42.626;23.320;2022-09-24T10:04:02;93483.41;;;14.82;44.32
39789;BME280;25478;42.626;23.320;2022-09-24T10:06:32;93487.09;;;14.96;44.17
39789;BME280;25478;42.626;23.320;2022-09-24T10:09:14;93484.34;;;15.10;44.49
39789;BME280;25478;42.626;23.320;2022-09-24T10:11:40;93474.31;;;15.28;44.08
39789;BME280;25478;42.626;23.320;2022-09-24T10:14:11;93479.16;;;15.40;42.50
39789;BME280;25478;42.626;23.320;2022-09-24T10:16:40;93471.53;;;15.42;42.14
39789;BME280;25478;42.626;23.320;2022-09-24T10:19:22;93473.78;;;15.47;42.15
39789;BME280;25478;42.626;23.320;2022-09-24T10:21:49;93468.75;;;15.57;41.83
39789;BME280;25478;42.626;23.320;2022-09-24T10:24:22;93472.47;;;15.66;41.67
39789;BME280;25478;42.626;23.320;2022-09-24T10:26:49;93464.44;;;15.70;40.91
39789;BME280;25478;42.626;23.320;2022-09-24T10:32:03;93470.75;;;15.83;40.82
39789;BME280;25478;42.626;23.320;2022-09-24T10:34:29;93466.13;;;15.91;40.94
39789;BME280;25478;42.626;23.320;2022-09-24T10:37:00;93463.38;;;15.98;40.72
39789;BME280;25478;42.626;23.320;2022-09-24T10:39:26;93462.16;;;16.06;40.47
39789;BME280;25478;42.626;23.320;2022-09-24T10:41:53;93455.56;;;16.14;40.08
39789;BME280;25478;42.626;23.320;2022-09-24T10:44:21;93460.84;;;16.18;40.68
39789;BME280;25478;42.626;23.320;2022-09-24T10:47:10;93474.75;;;16.29;40.43
39789;BME280;25478;42.626;23.320;2022-09-24T10:50:21;93464.34;;;16.42;40.00
39789;BME280;25478;42.626;23.320;2022-09-24T10:55:53;93452.75;;;16.55;38.69
39789;BME280;25478;42.626;23.320;2022-09-24T11:04:19;93453.16;;;16.81;38.94
39789;BME280;25478;42.626;23.320;2022-09-24T11:17:58;93445.94;;;17.05;38.31
39789;BME280;25478;42.626;23.320;2022-09-24T11:20:37;93436.63;;;17.16;37.93
39789;BME280;25478;42.626;23.320;2022-09-24T11:25:51;93429.31;;;17.44;37.69
39789;BME280;25478;42.626;23.320;2022-09-24T11:42:28;93420.56;;;17.63;36.08
39789;BME280;25478;42.626;23.320;2022-09-24T11:45:15;93413.50;;;17.77;35.88
39789;BME280;25478;42.626;23.320;2022-09-24T11:53:20;93401.59;;;18.01;34.95
39789;BME280;25478;42.626;23.320;2022-09-24T11:55:58;93392.84;;;18.00;35.56
39789;BME280;25478;42.626;23.320;2022-09-24T11:58:29;93404.78;;;18.12;35.21
39789;BME280;25478;42.626;23.320;2022-09-24T12:01:05;93398.78;;;18.08;34.99
39789;BME280;25478;42.626;23.320;2022-09-24T12:03:43;93403.75;;;18.06;35.23
39789;BME280;25478;42.626;23.320;2022-09-24T12:06:13;93405.34;;;18.04;35.16
39789;BME280;25478;42.626;23.320;2022-09-24T12:11:21;93401.94;;;18.03;34.39
39789;BME280;25478;42.626;23.320;2022-09-24T12:13:51;93399.94;;;18.07;33.92
39789;BME280;25478;42.626;23.320;2022-09-24T12:16:22;93408.19;;;18.13;33.77
39789;BME280;25478;42.626;23.320;2022-09-24T12:19:07;93400.31;;;18.25;34.26
39789;BME280;25478;42.626;23.320;2022-09-24T12:21:36;93394.81;;;18.33;34.09
39789;BME280;25478;42.626;23.320;2022-09-24T12:27:02;93335.84;;;18.14;33.70
39789;BME280;25478;42.626;23.320;2022-09-24T12:29:39;93397.13;;;18.67;33.84
39789;BME280;25478;42.626;23.320;2022-09-24T12:35:32;93402.53;;;18.79;33.92
39789;BME280;25478;42.626;23.320;2022-09-24T12:43:56;93401.53;;;18.90;32.98
39789;BME280;25478;42.626;23.320;2022-09-24T12:46:27;93404.63;;;18.88;32.91
39789;BME280;25478;42.626;23.320;2022-09-24T12:48:53;93401.78;;;18.95;33.22
39789;BME280;25478;42.626;23.320;2022-09-24T12:51:20;93386.69;;;18.89;33.04
39789;BME280;25478;42.626;23.320;2022-09-24T12:53:55;93393.28;;;19.00;33.20
39789;BME280;25478;42.626;23.320;2022-09-24T12:56:27;93394.44;;;18.99;33.13
39789;BME280;25478;42.626;23.320;2022-09-24T12:58:54;93392.59;;;18.96;32.52
39789;BME280;25478;42.626;23.320;2022-09-24T13:06:34;93382.94;;;19.02;32.57
39789;BME280;25478;42.626;23.320;2022-09-24T13:09:02;93372.59;;;19.04;32.55
39789;BME280;25478;42.626;23.320;2022-09-24T13:13:59;93366.59;;;19.00;32.00
39789;BME280;25478;42.626;23.320;2022-09-24T13:16:24;93388.84;;;19.10;31.76
39789;BME280;25478;42.626;23.320;2022-09-24T13:18:59;93379.41;;;19.05;32.03
39789;BME280;25478;42.626;23.320;2022-09-24T13:21:28;93379.75;;;19.07;31.68
39789;BME280;25478;42.626;23.320;2022-09-24T13:23:54;93383.16;;;19.08;31.67
39789;BME280;25478;42.626;23.320;2022-09-24T13:28:50;93381.22;;;19.08;31.88
39789;BME280;25478;42.626;23.320;2022-09-24T13:31:41;93379.34;;;19.09;30.95
39789;BME280;25478;42.626;23.320;2022-09-24T13:34:16;93374.09;;;19.05;31.03
39789;BME280;25478;42.626;23.320;2022-09-24T13:36:50;93361.16;;;19.04;31.40
39789;BME280;25478;42.626;23.320;2022-09-24T13:39:35;93359.66;;;19.03;31.52
39789;BME280;25478;42.626;23.320;2022-09-24T13:42:18;93370.66;;;19.05;31.03
39789;BME280;25478;42.626;23.320;2022-09-24T13:44:54;93359.66;;;19.03;30.78
39789;BME280;25478;42.626;23.320;2022-09-24T13:47:34;93354.75;;;19.01;31.08
39789;BME280;25478;42.626;23.320;2022-09-24T13:52:46;93357.44;;;19.01;31.80
39789;BME280;25478;42.626;23.320;2022-09-24T13:55:23;93352.59;;;18.96;31.87
39789;BME280;25478;42.626;23.320;2022-09-24T13:57:50;93344.53;;;18.83;31.87
39789;BME280;25478;42.626;23.320;2022-09-24T14:00:21;93348.13;;;18.77;32.19
39789;BME280;25478;42.626;23.320;2022-09-24T14:03:14;93344.94;;;18.66;31.85
39789;BME280;25478;42.626;23.320;2022-09-24T14:05:42;93342.19;;;18.53;32.36
39789;BME280;25478;42.626;23.320;2022-09-24T14:08:12;93345.34;;;18.48;32.28
39789;BME280;25478;42.626;23.320;2022-09-24T14:10:40;93355.84;;;18.39;32.60
39789;BME280;25478;42.626;23.320;2022-09-24T14:15:35;93350.28;;;18.17;33.21
39789;BME280;25478;42.626;23.320;2022-09-24T14:18:01;93348.66;;;18.03;33.16
39789;BME280;25478;42.626;23.320;2022-09-24T14:20:32;93339.78;;;17.90;33.68
39789;BME280;25478;42.626;23.320;2022-09-24T14:22:58;93336.63;;;17.79;33.98
39789;BME280;25478;42.626;23.320;2022-09-24T14:25:29;93344.38;;;17.69;34.90
39789;BME280;25478;42.626;23.320;2022-09-24T14:27:58;93339.97;;;17.63;35.55
39789;BME280;25478;42.626;23.320;2022-09-24T14:30:27;93350.69;;;17.59;36.64
39789;BME280;25478;42.626;23.320;2022-09-24T14:35:33;93339.91;;;17.47;38.35
39789;BME280;25478;42.626;23.320;2022-09-24T14:38:03;93340.78;;;17.40;39.58
39789;BME280;25478;42.626;23.320;2022-09-24T14:40:41;93331.84;;;17.30;40.15
39789;BME280;25478;42.626;23.320;2022-09-24T14:43:16;93345.69;;;17.22;40.23
39789;BME280;25478;42.626;23.320;2022-09-24T14:45:43;93341.66;;;17.13;40.91
39789;BME280;25478;42.626;23.320;2022-09-24T14:48:28;93347.47;;;17.08;41.45
39789;BME280;25478;42.626;23.320;2022-09-24T14:50:55;93346.44;;;17.02;42.74
39789;BME280;25478;42.626;23.320;2022-09-24T14:53:23;93345.81;;;16.95;43.11
39789;BME280;25478;42.626;23.320;2022-09-24T14:55:49;93333.66;;;16.74;42.92